Time;durP1;ratioP1;P1;durP2;ratioP2;P2;SDS_P1;SDS_P2;PMS_P1;PMS_P2;Temp;Humidity;BMP_temperature;BMP_pressure;BME280_temperature;BME280_humidity;BME280_pressure;Samples;Min_cycle;Max_cycle;Signal;HPM_P1;HPM_P2
2022/08/25 00:02:00;;;;;;;4.00;3.60;;;20.80;99.90;;;;;;5014101;28;20187;-56
2022/08/25 00:04:28;;;;;;;3.92;3.63;;;20.70;99.90;;;;;;5011666;28;20627;-57
2022/08/25 00:06:54;;;;;;;4.53;3.50;;;20.70;99.90;;;;;;5013885;28;20179;-57
2022/08/25 00:09:24;;;;;;;4.10;3.80;;;20.60;99.90;;;;;;5007685;28;20203;-54
2022/08/25 00:11:50;;;;;;;3.72;3.50;;;20.60;99.90;;;;;;5012455;28;20222;-56
2022/08/25 00:14:20;;;;;;;3.70;3.40;;;20.70;99.90;;;;;;5013624;28;20687;-54
2022/08/25 00:16:46;;;;;;;4.05;3.55;;;20.50;99.90;;;;;;5013545;28;20264;-55
2022/08/25 00:19:17;;;;;;;4.60;4.20;;;20.50;99.90;;;;;;5009952;28;20779;-55
2022/08/25 00:21:44;;;;;;;4.35;4.05;;;20.40;99.90;;;;;;5013699;28;20198;-54
2022/08/25 00:24:11;;;;;;;6.20;3.55;;;20.30;99.90;;;;;;5012800;28;20178;-56
2022/08/25 00:26:42;;;;;;;4.53;3.90;;;20.30;99.90;;;;;;5013787;28;20273;-55
2022/08/25 00:29:09;;;;;;;3.72;3.47;;;20.30;99.90;;;;;;5011489;28;20199;-55
2022/08/25 00:31:35;;;;;;;5.53;3.60;;;20.30;99.90;;;;;;5013055;28;20217;-55
2022/08/25 00:34:01;;;;;;;5.07;4.10;;;20.30;99.90;;;;;;5013696;28;20261;-56
2022/08/25 00:36:27;;;;;;;4.32;3.92;;;20.20;99.90;;;;;;5010848;28;20175;-56
2022/08/25 00:38:53;;;;;;;3.92;3.63;;;20.20;99.90;;;;;;5006870;28;20191;-54
2022/08/25 00:41:22;;;;;;;3.83;3.53;;;20.10;99.90;;;;;;5009141;28;20197;-56
2022/08/25 00:43:56;;;;;;;4.13;3.83;;;20.70;99.90;;;;;;5012558;28;20302;-54
2022/08/25 00:46:35;;;;;;;4.63;4.22;;;20.00;99.90;;;;;;5012665;28;20290;-56
2022/08/25 00:49:14;;;;;;;4.38;3.97;;;20.10;99.90;;;;;;5009339;28;20294;-57
2022/08/25 00:51:46;;;;;;;3.88;3.58;;;20.10;99.90;;;;;;5010106;28;20206;-56
2022/08/25 00:54:38;;;;;;;5.05;4.65;;;19.90;99.90;;;;;;5010444;28;20756;-56
2022/08/25 00:57:06;;;;;;;4.13;3.83;;;19.90;99.90;;;;;;5010261;28;20188;-56
2022/08/25 00:59:32;;;;;;;4.50;4.10;;;19.90;99.90;;;;;;5008963;28;20284;-55
2022/08/25 01:01:58;;;;;;;3.90;3.60;;;19.80;99.90;;;;;;5012885;28;20178;-56
2022/08/25 01:04:24;;;;;;;4.10;3.70;;;19.90;99.90;;;;;;5012807;28;20194;-55
2022/08/25 01:06:50;;;;;;;4.95;4.00;;;19.90;99.90;;;;;;5012812;28;20183;-55
2022/08/25 01:09:18;;;;;;;4.38;3.97;;;19.80;99.90;;;;;;5005997;28;20257;-55
2022/08/25 01:11:45;;;;;;;4.90;4.50;;;19.80;99.90;;;;;;5013120;28;20210;-54
2022/08/25 01:14:14;;;;;;;4.40;4.10;;;19.80;99.90;;;;;;5012595;28;20266;-55
2022/08/25 01:16:42;;;;;;;4.00;3.70;;;19.70;99.90;;;;;;5008902;28;20186;-55
2022/08/25 01:19:08;;;;;;;3.95;3.65;;;19.90;99.90;;;;;;5009543;28;20200;-54
2022/08/25 01:21:42;;;;;;;4.15;3.85;;;19.80;99.90;;;;;;5012221;28;20199;-56
2022/08/25 01:24:11;;;;;;;4.35;3.97;;;19.80;99.90;;;;;;5006638;28;20186;-56
2022/08/25 01:26:37;;;;;;;4.53;4.13;;;19.80;99.90;;;;;;5012578;28;20189;-54
2022/08/25 01:29:21;;;;;;;4.13;3.80;;;19.80;99.90;;;;;;5008535;28;20212;-54
2022/08/25 01:31:53;;;;;;;4.13;3.72;;;19.80;99.90;;;;;;5010762;28;20212;-53
2022/08/25 01:34:20;;;;;;;5.47;3.75;;;19.80;99.90;;;;;;5011192;28;20179;-54
2022/08/25 01:36:45;;;;;;;6.20;4.10;;;19.80;99.90;;;;;;5011265;28;20183;-53
2022/08/25 01:39:11;;;;;;;4.43;4.13;;;19.70;99.90;;;;;;5006279;28;20290;-53
2022/08/25 01:41:45;;;;;;;4.82;4.43;;;19.70;99.90;;;;;;5011536;28;20318;-54
2022/08/25 01:44:11;;;;;;;4.50;4.10;;;19.60;99.90;;;;;;5006743;28;20233;-54
2022/08/25 01:46:37;;;;;;;7.27;4.20;;;19.60;99.90;;;;;;5011092;28;20666;-53
2022/08/25 01:49:03;;;;;;;4.45;4.05;;;19.60;99.90;;;;;;5006939;28;20465;-54
2022/08/25 01:51:37;;;;;;;4.15;3.85;;;19.50;99.90;;;;;;5004306;28;20211;-54
2022/08/25 01:54:03;;;;;;;4.70;4.30;;;19.50;99.90;;;;;;5005788;28;20183;-54
2022/08/25 01:56:28;;;;;;;4.00;3.70;;;19.50;99.90;;;;;;5011309;28;20179;-54
2022/08/25 01:58:55;;;;;;;3.90;3.63;;;19.40;99.90;;;;;;5005436;28;20269;-52
2022/08/25 02:01:22;;;;;;;4.10;3.80;;;19.40;99.90;;;;;;5010086;28;20652;-52
2022/08/25 02:03:51;;;;;;;4.03;3.72;;;19.10;99.90;;;;;;5011753;28;20194;-53
2022/08/25 02:06:22;;;;;;;4.03;3.72;;;19.40;99.90;;;;;;5011070;28;20190;-55
2022/08/25 02:08:52;;;;;;;4.22;3.92;;;19.30;99.90;;;;;;5007315;28;20190;-57
2022/08/25 02:11:18;;;;;;;4.38;3.97;;;19.30;99.90;;;;;;5006051;28;20691;-56
2022/08/25 02:13:44;;;;;;;4.27;3.87;;;19.20;99.90;;;;;;5012256;28;20237;-56
2022/08/25 02:16:16;;;;;;;4.07;3.67;;;19.00;99.90;;;;;;5027525;28;20446;-57
2022/08/25 02:18:42;;;;;;;4.45;4.05;;;19.20;99.90;;;;;;5005121;28;20283;-57
2022/08/25 02:21:10;;;;;;;4.97;4.30;;;19.30;99.90;;;;;;5007119;28;20269;-56
2022/08/25 02:23:36;;;;;;;4.47;4.15;;;19.10;99.90;;;;;;5008648;28;20179;-57
2022/08/25 02:26:02;;;;;;;4.97;4.57;;;19.10;99.90;;;;;;5011455;28;20194;-57
2022/08/25 02:28:28;;;;;;;5.10;4.60;;;19.00;99.90;;;;;;5009892;28;20434;-55
2022/08/25 02:30:53;;;;;;;4.87;4.47;;;19.00;99.90;;;;;;5004246;28;20629;-56
2022/08/25 02:33:19;;;;;;;4.87;4.50;;;19.00;99.90;;;;;;5011555;28;20201;-56
2022/08/25 02:35:44;;;;;;;4.73;4.40;;;19.00;99.90;;;;;;5011584;28;20171;-55
2022/08/25 02:38:10;;;;;;;4.67;4.27;;;19.00;99.90;;;;;;5006228;28;20237;-55
2022/08/25 02:40:36;;;;;;;4.47;4.17;;;19.00;99.90;;;;;;5000444;28;20765;-56
2022/08/25 02:43:02;;;;;;;4.47;4.17;;;18.90;99.90;;;;;;5011311;28;20183;-55
2022/08/25 02:45:27;;;;;;;4.72;4.32;;;18.90;99.90;;;;;;5009878;28;20190;-55
2022/08/25 02:47:53;;;;;;;9.13;4.70;;;18.90;99.90;;;;;;5008695;28;20656;-55
2022/08/25 02:50:19;;;;;;;4.90;4.53;;;18.90;99.90;;;;;;5004741;28;20233;-55
2022/08/25 02:52:45;;;;;;;5.20;4.80;;;18.90;99.90;;;;;;5012269;28;20185;-56
2022/08/25 02:55:13;;;;;;;4.30;3.93;;;18.90;99.90;;;;;;5009948;28;20464;-55
2022/08/25 02:57:40;;;;;;;4.90;4.50;;;18.90;99.90;;;;;;5008539;28;20170;-55
2022/08/25 03:00:08;;;;;;;4.82;4.43;;;18.90;99.90;;;;;;5004025;28;20301;-53
2022/08/25 03:02:34;;;;;;;5.22;4.60;;;18.80;99.90;;;;;;5014454;28;20218;-54
2022/08/25 03:04:59;;;;;;;4.63;4.23;;;18.80;99.90;;;;;;5018899;28;20609;-54
2022/08/25 03:07:25;;;;;;;5.60;4.17;;;18.70;99.90;;;;;;5014570;28;20178;-56
2022/08/25 03:09:50;;;;;;;5.10;4.60;;;18.70;99.90;;;;;;5004648;28;20305;-55
2022/08/25 03:12:16;;;;;;;5.30;4.90;;;18.70;99.90;;;;;;5010245;28;20213;-54
2022/08/25 03:14:42;;;;;;;5.10;4.70;;;18.60;99.90;;;;;;5009830;28;20664;-55
2022/08/25 03:17:07;;;;;;;5.37;4.97;;;18.60;99.90;;;;;;5009826;28;20179;-56
2022/08/25 03:19:34;;;;;;;5.13;4.60;;;18.70;99.90;;;;;;5004244;28;20472;-56
2022/08/25 03:21:59;;;;;;;4.70;4.30;;;18.60;99.90;;;;;;5010535;28;20237;-55
2022/08/25 03:24:26;;;;;;;5.07;4.67;;;18.60;99.90;;;;;;5009859;28;20183;-55
2022/08/25 03:26:53;;;;;;;4.70;4.15;;;18.60;99.90;;;;;;5010724;28;20174;-56
2022/08/25 03:29:31;;;;;;;4.40;4.10;;;18.60;99.90;;;;;;5007365;28;20257;-56
2022/08/25 03:31:58;;;;;;;4.53;4.22;;;18.50;99.90;;;;;;5010577;28;20625;-55
2022/08/25 03:34:26;;;;;;;4.95;4.45;;;18.60;99.90;;;;;;5009441;28;20257;-53
2022/08/25 03:36:52;;;;;;;5.28;4.88;;;18.50;99.90;;;;;;5006648;28;20346;-63
2022/08/25 03:39:20;;;;;;;7.40;5.05;;;18.60;99.90;;;;;;5002476;28;20207;-64
2022/08/25 03:41:46;;;;;;;4.85;4.28;;;18.50;99.90;;;;;;5009224;28;20191;-65
2022/08/25 03:44:13;;;;;;;4.35;4.05;;;18.50;99.90;;;;;;5010315;28;20265;-66
2022/08/25 03:46:44;;;;;;;4.50;4.18;;;18.40;99.90;;;;;;5006955;28;20634;-65
2022/08/25 03:49:14;;;;;;;4.90;4.50;;;18.50;99.90;;;;;;5005387;28;20273;-65
2022/08/25 03:51:47;;;;;;;4.38;4.07;;;18.50;99.90;;;;;;5006697;28;20250;-65
2022/08/25 03:54:19;;;;;;;5.20;4.78;;;18.70;99.90;;;;;;5010133;28;20214;-65
2022/08/25 03:56:44;;;;;;;4.82;4.43;;;18.70;99.90;;;;;;5003109;28;20715;-64
2022/08/25 03:59:10;;;;;;;4.83;4.37;;;18.80;99.90;;;;;;5001586;28;20206;-64
2022/08/25 04:01:36;;;;;;;5.40;5.00;;;18.70;99.90;;;;;;5005877;28;20225;-64
2022/08/25 04:04:04;;;;;;;5.68;5.18;;;19.00;99.90;;;;;;5004986;28;20272;-63
2022/08/25 04:06:30;;;;;;;4.93;4.53;;;18.50;99.90;;;;;;5009058;28;20191;-63
2022/08/25 04:08:57;;;;;;;5.78;4.40;;;18.50;99.90;;;;;;4998317;28;20219;-57
2022/08/25 04:11:24;;;;;;;5.05;4.65;;;18.50;99.90;;;;;;5009319;28;20207;-57
2022/08/25 04:13:52;;;;;;;5.88;4.88;;;18.40;99.90;;;;;;5010559;28;20194;-57
2022/08/25 04:16:23;;;;;;;4.80;4.40;;;18.40;99.90;;;;;;5009661;28;20186;-57
2022/08/25 04:18:50;;;;;;;6.65;5.25;;;18.40;99.90;;;;;;5001437;28;20183;-58
2022/08/25 04:21:18;;;;;;;4.90;4.50;;;18.30;99.90;;;;;;5004016;28;20180;-58
2022/08/25 04:23:44;;;;;;;5.72;5.25;;;18.30;99.90;;;;;;4997474;28;20269;-58
2022/08/25 04:26:12;;;;;;;5.05;4.65;;;18.30;99.90;;;;;;5009695;28;20191;-57
2022/08/25 04:28:38;;;;;;;6.60;5.22;;;18.30;99.90;;;;;;5014036;28;20183;-57
2022/08/25 04:31:08;;;;;;;6.13;5.63;;;18.30;99.90;;;;;;5007605;28;20222;-56
2022/08/25 04:33:36;;;;;;;4.82;4.43;;;18.30;99.90;;;;;;5014089;28;20838;-57
2022/08/25 04:36:03;;;;;;;5.63;5.00;;;18.30;99.90;;;;;;5012926;28;20189;-58
2022/08/25 04:38:29;;;;;;;7.07;5.18;;;18.20;99.90;;;;;;5011492;28;20561;-57
2022/08/25 04:40:59;;;;;;;6.03;5.43;;;18.30;99.90;;;;;;5011295;28;20211;-58
2022/08/25 04:43:25;;;;;;;5.40;5.00;;;18.30;99.90;;;;;;5013637;28;20260;-57
2022/08/25 04:45:51;;;;;;;5.80;5.10;;;18.30;99.90;;;;;;5013081;28;20201;-56
2022/08/25 04:48:17;;;;;;;5.57;5.07;;;18.30;99.90;;;;;;5000725;28;20195;-57
2022/08/25 04:50:43;;;;;;;5.38;4.90;;;18.20;99.90;;;;;;5000446;28;20305;-57
2022/08/25 04:53:09;;;;;;;5.33;4.93;;;18.20;99.90;;;;;;5007740;28;20293;-56
2022/08/25 04:55:46;;;;;;;4.88;4.47;;;18.20;99.90;;;;;;5011812;28;20179;-57
2022/08/25 04:58:14;;;;;;;6.28;5.22;;;18.20;99.90;;;;;;5011376;28;20614;-57
2022/08/25 05:00:40;;;;;;;5.43;5.03;;;18.70;99.90;;;;;;5006592;28;20203;-57
2022/08/25 05:03:07;;;;;;;6.00;5.40;;;18.30;99.90;;;;;;5012599;28;20194;-57
2022/08/25 05:05:36;;;;;;;5.60;5.20;;;18.20;99.90;;;;;;5008184;28;20194;-56
2022/08/25 05:08:02;;;;;;;5.70;5.20;;;18.20;99.90;;;;;;5005379;28;20195;-57
2022/08/25 05:10:27;;;;;;;5.20;4.80;;;18.30;99.90;;;;;;5001465;28;20207;-56
2022/08/25 05:12:53;;;;;;;6.07;5.17;;;18.30;99.90;;;;;;5016461;28;20186;-58
2022/08/25 05:18:03;;;;;;;5.78;5.28;;;18.30;99.90;;;;;;5010018;28;20859;-58
2022/08/25 05:20:30;;;;;;;6.70;5.27;;;18.40;99.90;;;;;;5007046;28;20218;-58
2022/08/25 05:22:56;;;;;;;6.22;5.72;;;18.50;99.90;;;;;;5012801;28;20187;-57
2022/08/25 05:25:22;;;;;;;5.60;5.10;;;18.40;99.90;;;;;;5019287;28;20204;-57
2022/08/25 05:27:48;;;;;;;5.82;5.32;;;18.50;99.90;;;;;;5008125;28;20187;-57
2022/08/25 05:30:14;;;;;;;5.87;5.37;;;18.60;99.90;;;;;;5008236;28;20541;-54
2022/08/25 05:32:39;;;;;;;6.63;6.00;;;18.70;99.90;;;;;;5014490;28;20477;-55
2022/08/25 05:35:06;;;;;;;7.47;5.60;;;18.70;99.90;;;;;;5012081;28;20238;-55
2022/08/25 05:37:32;;;;;;;6.15;5.50;;;18.70;99.90;;;;;;5009889;28;20193;-55
2022/08/25 05:39:58;;;;;;;6.65;5.22;;;18.80;99.90;;;;;;5007573;28;20226;-54
2022/08/25 05:42:24;;;;;;;6.77;6.27;;;18.80;99.90;;;;;;5012023;28;20591;-55
2022/08/25 05:44:50;;;;;;;7.10;6.17;;;19.00;99.90;;;;;;5010750;28;20539;-55
2022/08/25 05:47:15;;;;;;;6.00;5.50;;;19.00;99.90;;;;;;5010758;28;20210;-55
2022/08/25 05:49:41;;;;;;;7.20;6.50;;;18.70;99.90;;;;;;5007320;28;20247;-54
2022/08/25 05:52:07;;;;;;;7.13;6.43;;;19.20;99.90;;;;;;5004142;28;20298;-58
2022/08/25 05:54:32;;;;;;;6.70;5.97;;;19.80;99.90;;;;;;5014520;28;20193;-58
2022/08/25 05:56:58;;;;;;;6.00;5.40;;;19.40;99.90;;;;;;5013552;28;20215;-60
2022/08/25 05:59:24;;;;;;;5.80;5.30;;;19.40;99.90;;;;;;5011206;28;20211;-59
2022/08/25 06:04:33;;;;;;;6.10;5.40;;;19.60;99.90;;;;;;5004666;28;20276;-59
2022/08/25 06:06:59;;;;;;;6.67;6.17;;;19.70;99.90;;;;;;5010170;28;20274;-62
2022/08/25 06:09:25;;;;;;;7.13;6.43;;;19.70;99.90;;;;;;5012857;28;20461;-61
2022/08/25 06:11:51;;;;;;;6.50;5.90;;;19.80;99.90;;;;;;5012006;28;20217;-60
2022/08/25 06:14:18;;;;;;;11.10;6.82;;;20.10;99.90;;;;;;5001318;28;20443;-63
2022/08/25 06:16:44;;;;;;;6.60;6.00;;;20.30;99.90;;;;;;5009014;28;20234;-59
2022/08/25 06:19:10;;;;;;;6.60;6.03;;;20.50;99.90;;;;;;5000832;28;20207;-59
2022/08/25 06:21:39;;;;;;;7.65;6.97;;;20.60;99.90;;;;;;5013322;28;20563;-60
2022/08/25 06:24:05;;;;;;;6.95;6.25;;;20.60;99.90;;;;;;5011938;28;20197;-58
2022/08/25 06:26:31;;;;;;;7.05;6.35;;;20.60;99.90;;;;;;5009800;28;20186;-58
2022/08/25 06:28:57;;;;;;;6.23;5.70;;;20.70;99.90;;;;;;5022262;28;20691;-58
2022/08/25 06:31:23;;;;;;;6.23;5.67;;;20.70;99.90;;;;;;5005466;28;20242;-61
2022/08/25 06:33:49;;;;;;;9.03;6.53;;;20.90;99.90;;;;;;5013000;28;20183;-63
2022/08/25 06:36:15;;;;;;;7.05;6.45;;;21.00;99.90;;;;;;5008940;28;20210;-63
2022/08/25 06:38:40;;;;;;;7.50;6.80;;;21.20;99.90;;;;;;5013284;28;20652;-63
2022/08/25 06:41:09;;;;;;;6.60;6.10;;;21.30;99.90;;;;;;5007223;28;20267;-62
2022/08/25 06:43:35;;;;;;;8.00;6.20;;;21.50;99.90;;;;;;5004948;28;20194;-63
2022/08/25 06:46:11;;;;;;;7.90;7.20;;;21.60;99.90;;;;;;5014292;28;20202;-63
2022/08/25 06:48:37;;;;;;;7.00;6.30;;;21.70;99.90;;;;;;5006833;28;20221;-63
2022/08/25 06:51:08;;;;;;;6.53;5.83;;;21.80;99.90;;;;;;5015896;28;20969;-64
2022/08/25 06:53:34;;;;;;;9.87;7.90;;;22.00;99.90;;;;;;5005676;28;20834;-61
2022/08/25 06:56:00;;;;;;;7.57;6.83;;;22.20;99.90;;;;;;5016048;28;20436;-64
2022/08/25 06:58:25;;;;;;;9.63;8.73;;;22.20;99.90;;;;;;5014553;28;20445;-64
2022/08/25 07:00:51;;;;;;;8.43;7.07;;;22.30;99.90;;;;;;5010424;28;20252;-67
2022/08/25 07:03:17;;;;;;;8.60;6.57;;;22.30;99.90;;;;;;5009068;28;20202;-60
2022/08/25 07:05:53;;;;;;;8.90;6.13;;;22.50;99.90;;;;;;5017610;28;20433;-60
2022/08/25 07:08:19;;;;;;;8.00;7.10;;;22.80;99.90;;;;;;5006339;28;20449;-62
2022/08/25 07:10:45;;;;;;;7.23;6.60;;;23.20;99.10;;;;;;5016408;28;20954;-63
2022/08/25 07:13:12;;;;;;;7.80;6.83;;;24.20;98.20;;;;;;5010379;28;20179;-64
2022/08/25 07:15:38;;;;;;;7.10;6.43;;;26.20;95.10;;;;;;5013034;28;20477;-63
2022/08/25 07:18:05;;;;;;;5.50;5.10;;;28.70;90.60;;;;;;5005909;28;20945;-66
2022/08/25 07:20:31;;;;;;;8.10;6.10;;;31.60;78.70;;;;;;5006979;28;20464;-63
2022/08/25 07:22:56;;;;;;;7.90;6.13;;;33.60;66.70;;;;;;5013837;28;20437;-65
2022/08/25 07:25:22;;;;;;;5.93;5.43;;;34.80;61.90;;;;;;5016370;28;21208;-62
2022/08/25 07:27:48;;;;;;;6.30;5.70;;;35.70;57.70;;;;;;5014575;28;20570;-62
2022/08/25 07:30:15;;;;;;;6.43;5.83;;;37.20;53.80;;;;;;5011024;28;20216;-61
2022/08/25 07:32:41;;;;;;;5.90;5.40;;;37.70;51.30;;;;;;5010648;28;20215;-66
2022/08/25 07:35:16;;;;;;;7.00;5.87;;;38.40;50.00;;;;;;5015326;28;20543;-61
2022/08/25 07:37:47;;;;;;;6.20;5.70;;;38.30;48.40;;;;;;5005825;28;20272;-64
2022/08/25 07:40:20;;;;;;;6.13;5.63;;;37.40;48.40;;;;;;5011800;28;20465;-62
2022/08/25 07:42:48;;;;;;;6.63;6.10;;;36.40;50.10;;;;;;5015304;28;20480;-63
2022/08/25 07:45:14;;;;;;;6.77;6.27;;;36.80;49.80;;;;;;5018210;28;20520;-63
2022/08/25 07:47:39;;;;;;;6.13;5.60;;;36.90;49.80;;;;;;5003807;28;21030;-63
2022/08/25 07:50:08;;;;;;;6.57;6.07;;;37.00;48.70;;;;;;5020873;28;20528;-62
2022/08/25 07:52:34;;;;;;;6.70;6.00;;;36.70;49.10;;;;;;5005495;28;22185;-65
2022/08/25 07:55:01;;;;;;;7.00;6.50;;;36.50;49.60;;;;;;5011571;28;20941;-63
2022/08/25 07:57:28;;;;;;;7.30;6.80;;;36.80;48.70;;;;;;5005750;28;20182;-64
2022/08/25 07:59:54;;;;;;;7.20;6.40;;;36.90;48.40;;;;;;5014605;28;20450;-63
2022/08/25 08:02:19;;;;;;;7.00;6.40;;;37.00;47.90;;;;;;5008145;28;20784;-69
2022/08/25 08:04:50;;;;;;;6.40;5.90;;;36.90;48.10;;;;;;5010294;28;20194;-59
2022/08/25 08:07:18;;;;;;;7.03;6.37;;;37.00;48.30;;;;;;5006970;28;20195;-60
2022/08/25 08:09:43;;;;;;;5.97;5.57;;;37.80;47.00;;;;;;5014371;28;21481;-59
2022/08/25 08:12:09;;;;;;;6.40;5.90;;;38.60;45.20;;;;;;5018696;28;20481;-58
2022/08/25 08:14:34;;;;;;;6.53;5.93;;;38.40;45.10;;;;;;5019533;28;20725;-57
2022/08/25 08:17:06;;;;;;;6.33;5.73;;;38.20;45.20;;;;;;5016862;28;20257;-57
2022/08/25 08:19:31;;;;;;;5.77;5.37;;;38.50;44.90;;;;;;5008710;28;20663;-57
2022/08/25 08:21:57;;;;;;;5.83;5.33;;;38.10;45.10;;;;;;5011818;28;20453;-58
2022/08/25 08:24:22;;;;;;;5.77;5.27;;;38.00;45.40;;;;;;5014493;28;20548;-58
2022/08/25 08:26:48;;;;;;;5.73;5.27;;;38.10;45.10;;;;;;5016302;28;20278;-58
2022/08/25 08:29:14;;;;;;;6.17;5.60;;;38.60;44.60;;;;;;5011249;28;20242;-60
2022/08/25 08:31:39;;;;;;;5.40;5.00;;;38.40;45.30;;;;;;5015721;28;20253;-59
2022/08/25 08:34:05;;;;;;;5.90;5.40;;;38.40;44.50;;;;;;5013023;28;20445;-59
2022/08/25 08:36:30;;;;;;;5.30;4.90;;;37.60;45.10;;;;;;5023569;28;20202;-60
2022/08/25 08:38:56;;;;;;;6.10;5.67;;;37.50;45.20;;;;;;5010609;28;20245;-60
2022/08/25 08:44:44;;;;;;;5.97;5.47;;;37.90;44.70;;;;;;5010469;28;20699;-63
2022/08/25 08:47:34;;;;;;;5.90;5.50;;;37.40;45.10;;;;;;5014456;28;20460;-63
2022/08/25 08:50:11;;;;;;;5.77;5.33;;;38.20;44.80;;;;;;5015570;28;20468;-64
2022/08/25 08:53:02;;;;;;;5.53;5.13;;;38.80;43.70;;;;;;5010617;28;20483;-65
2022/08/25 08:56:09;;;;;;;5.53;5.13;;;39.20;43.10;;;;;;5015743;28;20592;-65
2022/08/25 08:58:54;;;;;;;5.57;5.17;;;38.50;43.10;;;;;;4972629;28;20442;-67
2022/08/25 09:01:29;;;;;;;6.03;4.67;;;39.20;42.80;;;;;;4969185;28;20452;-65
2022/08/25 09:04:33;;;;;;;5.80;5.20;;;39.50;42.10;;;;;;4999691;28;20452;-64
2022/08/25 09:07:03;;;;;;;5.77;5.40;;;40.00;41.30;;;;;;5005601;28;20518;-62
2022/08/25 09:09:32;;;;;;;5.57;5.17;;;40.30;40.30;;;;;;5004337;28;20505;-65
2022/08/25 09:12:09;;;;;;;5.80;5.40;;;40.20;40.60;;;;;;5005730;28;20515;-64
2022/08/25 09:14:58;;;;;;;5.93;5.40;;;40.10;40.80;;;;;;5008313;28;20439;-66
2022/08/25 09:17:47;;;;;;;5.57;5.17;;;40.20;40.80;;;;;;5008799;28;20779;-63
2022/08/25 09:20:37;;;;;;;6.00;5.57;;;40.00;40.00;;;;;;5010885;28;20476;-63
2022/08/25 09:23:20;;;;;;;5.73;5.20;;;39.10;41.60;;;;;;4996517;28;20483;-63
2022/08/25 09:26:07;;;;;;;5.67;5.17;;;37.90;42.70;;;;;;5010710;28;20897;-64
2022/08/25 09:28:49;;;;;;;5.40;5.10;;;36.90;44.40;;;;;;5010144;28;20587;-62
2022/08/25 09:31:21;;;;;;;6.27;5.17;;;35.20;47.30;;;;;;5007633;28;20616;-62
2022/08/25 09:33:47;;;;;;;5.10;4.70;;;33.90;48.70;;;;;;5010055;28;20520;-63
2022/08/25 09:36:12;;;;;;;5.97;5.50;;;32.80;50.70;;;;;;5013430;28;20590;-63
2022/08/25 09:38:38;;;;;;;5.80;5.33;;;32.10;52.60;;;;;;5008989;28;20185;-65
2022/08/25 09:41:05;;;;;;;6.27;5.77;;;31.50;54.20;;;;;;5014050;28;20596;-65
2022/08/25 09:43:42;;;;;;;5.70;5.30;;;31.00;55.30;;;;;;5011363;28;20446;-63
2022/08/25 09:46:09;;;;;;;5.60;5.20;;;30.70;56.60;;;;;;5008282;28;20957;-62
2022/08/25 09:48:41;;;;;;;6.40;5.90;;;30.40;57.60;;;;;;5011756;28;20446;-64
2022/08/25 09:51:18;;;;;;;5.50;5.07;;;30.00;58.60;;;;;;5011483;28;20474;-67
2022/08/25 09:53:52;;;;;;;5.73;5.30;;;29.90;59.10;;;;;;5003808;28;20476;-62
2022/08/25 09:56:21;;;;;;;6.27;5.40;;;30.00;58.90;;;;;;5014060;28;20929;-64
2022/08/25 09:58:47;;;;;;;5.93;5.53;;;30.00;59.40;;;;;;5011582;28;20457;-63
2022/08/25 10:01:20;;;;;;;5.40;5.00;;;30.20;59.30;;;;;;5011373;28;20490;-64
2022/08/25 10:03:59;;;;;;;5.40;5.00;;;30.30;58.90;;;;;;5009119;28;20442;-63
2022/08/25 10:06:29;;;;;;;5.87;5.37;;;30.10;59.20;;;;;;5018223;28;20781;-63
2022/08/25 10:08:58;;;;;;;6.30;5.40;;;29.80;59.80;;;;;;5009957;28;20445;-63
2022/08/25 10:11:40;;;;;;;5.80;5.40;;;29.70;60.40;;;;;;5019327;28;20481;-63
2022/08/25 10:14:18;;;;;;;5.60;5.20;;;29.70;60.80;;;;;;5006391;28;20814;-59
2022/08/25 10:16:46;;;;;;;5.80;5.40;;;29.50;60.80;;;;;;5004692;28;21249;-60
2022/08/25 10:19:21;;;;;;;5.53;5.10;;;29.60;60.00;;;;;;5016112;28;20471;-60
2022/08/25 10:22:03;;;;;;;6.37;5.77;;;29.50;60.60;;;;;;5018051;28;20751;-59
2022/08/25 10:24:29;;;;;;;4.60;4.27;;;29.50;60.70;;;;;;5003423;28;20452;-63
2022/08/25 10:26:58;;;;;;;5.40;5.00;;;29.50;59.40;;;;;;5014590;28;20468;-62
2022/08/25 10:30:00;;;;;;;5.20;4.80;;;29.40;60.70;;;;;;5020776;28;20212;-63
2022/08/25 10:32:44;;;;;;;5.73;5.33;;;29.30;60.40;;;;;;5002819;28;20476;-63
2022/08/25 10:35:19;;;;;;;5.17;4.77;;;29.30;60.10;;;;;;5009591;28;20452;-63
2022/08/25 10:37:51;;;;;;;5.40;4.90;;;29.20;60.30;;;;;;5013060;28;20545;-66
2022/08/25 10:40:31;;;;;;;4.97;4.60;;;29.20;59.60;;;;;;5008997;28;20834;-66
2022/08/25 10:43:06;;;;;;;4.80;4.40;;;29.20;59.80;;;;;;5012010;28;20958;-66
2022/08/25 10:45:43;;;;;;;5.67;5.17;;;29.20;60.40;;;;;;5010607;28;20462;-60
2022/08/25 10:48:38;;;;;;;5.17;4.77;;;29.20;60.50;;;;;;5000666;28;20459;-59
2022/08/25 10:51:28;;;;;;;4.83;4.43;;;29.20;59.80;;;;;;5001785;28;20480;-61
2022/08/25 10:54:03;;;;;;;4.47;4.17;;;29.30;59.80;;;;;;5016302;28;20441;-60
2022/08/25 10:56:34;;;;;;;5.90;4.77;;;29.60;59.70;;;;;;5011386;28;20432;-64
2022/08/25 10:59:35;;;;;;;4.80;4.40;;;29.70;59.20;;;;;;5010365;28;20456;-64
2022/08/25 11:02:07;;;;;;;4.87;4.33;;;29.70;57.90;;;;;;4994001;28;20518;-64
2022/08/25 11:04:48;;;;;;;4.93;4.43;;;29.90;57.20;;;;;;5020448;28;20479;-64
2022/08/25 11:07:49;;;;;;;4.90;3.97;;;30.00;57.10;;;;;;5011910;28;20969;-64
2022/08/25 11:10:25;;;;;;;5.00;4.60;;;30.40;56.80;;;;;;5008439;28;20557;-64
2022/08/25 11:12:55;;;;;;;4.63;4.23;;;30.50;55.80;;;;;;5009787;28;20469;-63
2022/08/25 11:15:35;;;;;;;5.03;4.63;;;30.40;56.00;;;;;;5009939;28;20789;-63
2022/08/25 11:18:06;;;;;;;4.13;3.83;;;30.20;56.10;;;;;;5013954;28;21265;-64
2022/08/25 11:20:42;;;;;;;3.80;3.50;;;30.20;56.40;;;;;;5018030;28;20903;-63
2022/08/25 11:23:23;;;;;;;4.90;3.70;;;30.20;55.60;;;;;;5012643;28;20527;-64
2022/08/25 11:25:52;;;;;;;4.40;4.00;;;30.10;55.90;;;;;;5016589;28;20449;-63
2022/08/25 11:28:41;;;;;;;4.07;3.67;;;30.30;56.50;;;;;;5013248;28;20453;-63
2022/08/25 11:31:09;;;;;;;3.43;3.13;;;30.00;55.00;;;;;;5010272;28;20473;-63
2022/08/25 11:33:35;;;;;;;3.17;2.97;;;30.00;55.10;;;;;;5013541;28;20451;-63
2022/08/25 11:36:04;;;;;;;3.90;3.60;;;30.10;54.80;;;;;;5009780;28;20514;-64
2022/08/25 11:38:48;;;;;;;4.90;4.50;;;30.10;56.30;;;;;;5015697;28;20527;-63
2022/08/25 11:41:14;;;;;;;4.30;3.90;;;30.10;56.80;;;;;;5014043;28;20452;-63
2022/08/25 11:44:07;;;;;;;4.20;3.90;;;30.10;56.90;;;;;;5021685;28;20453;-64
2022/08/25 11:46:38;;;;;;;4.10;3.80;;;30.20;56.90;;;;;;5009679;28;20254;-64
2022/08/25 11:49:30;;;;;;;4.30;3.90;;;30.30;56.60;;;;;;5023834;28;20474;-63
2022/08/25 11:51:56;;;;;;;3.70;3.50;;;30.30;55.80;;;;;;5022254;28;21706;-64
2022/08/25 11:54:35;;;;;;;4.20;3.90;;;30.30;54.10;;;;;;5020790;28;20444;-63
2022/08/25 11:57:07;;;;;;;4.07;3.80;;;30.30;54.60;;;;;;5029040;28;20516;-64
2022/08/25 11:59:51;;;;;;;4.17;3.87;;;30.30;55.30;;;;;;5005827;28;20453;-60
2022/08/25 12:02:35;;;;;;;3.73;3.53;;;30.40;53.50;;;;;;5023143;28;20438;-61
2022/08/25 12:05:09;;;;;;;4.00;3.70;;;30.60;53.50;;;;;;5019760;28;20450;-61
2022/08/25 12:10:50;;;;;;;3.70;3.40;;;31.10;53.70;;;;;;5015560;28;22690;-62
2022/08/25 12:13:25;;;;;;;4.23;3.93;;;31.20;51.70;;;;;;5013788;28;20441;-61
2022/08/25 12:15:51;;;;;;;4.00;3.80;;;31.00;52.20;;;;;;5022921;28;20438;-64
2022/08/25 12:18:22;;;;;;;5.00;4.13;;;30.80;53.50;;;;;;5015570;28;20779;-64
2022/08/25 12:20:55;;;;;;;5.80;4.30;;;30.60;54.30;;;;;;5017231;28;20221;-63
2022/08/25 12:23:44;;;;;;;6.00;4.10;;;30.50;54.40;;;;;;5015158;28;20445;-64
2022/08/25 12:26:28;;;;;;;4.53;4.20;;;30.40;53.70;;;;;;5013601;28;20449;-62
2022/08/25 12:29:06;;;;;;;4.57;4.17;;;30.30;54.80;;;;;;5020626;28;20437;-61
2022/08/25 12:31:49;;;;;;;4.10;3.80;;;30.10;54.70;;;;;;5020512;28;20465;-61
2022/08/25 12:34:23;;;;;;;4.80;4.40;;;30.20;55.00;;;;;;5018000;28;20502;-60
2022/08/25 12:37:04;;;;;;;3.70;3.50;;;30.30;55.00;;;;;;5023675;28;20489;-60
2022/08/25 12:39:35;;;;;;;4.70;4.40;;;30.30;54.40;;;;;;5019432;28;20466;-59
2022/08/25 12:42:05;;;;;;;4.40;4.10;;;30.30;55.70;;;;;;5017534;28;20448;-59
2022/08/25 12:44:46;;;;;;;5.00;4.60;;;30.10;57.10;;;;;;5012825;28;20451;-60
2022/08/25 12:47:27;;;;;;;4.87;4.47;;;30.00;57.20;;;;;;5009960;28;20527;-59
2022/08/25 12:50:13;;;;;;;4.77;4.37;;;30.00;57.30;;;;;;5015172;28;20576;-60
2022/08/25 12:52:39;;;;;;;3.97;3.77;;;30.00;56.60;;;;;;5015709;28;21033;-60
2022/08/25 12:55:10;;;;;;;4.70;4.30;;;30.10;56.60;;;;;;5019381;28;20441;-62
2022/08/25 12:57:45;;;;;;;4.80;4.40;;;30.10;56.60;;;;;;5011220;28;20596;-61
2022/08/25 13:00:22;;;;;;;4.90;4.50;;;30.20;55.50;;;;;;5012058;28;20960;-61
2022/08/25 13:03:17;;;;;;;4.43;4.13;;;30.20;55.20;;;;;;5014111;28;20453;-62
2022/08/25 13:06:10;;;;;;;4.13;3.83;;;30.30;55.10;;;;;;5017165;28;20437;-58
2022/08/25 13:08:45;;;;;;;3.80;3.50;;;30.30;55.20;;;;;;5010079;28;20446;-58
2022/08/25 13:11:23;;;;;;;4.30;4.00;;;30.30;55.10;;;;;;5019956;28;20554;-62
2022/08/25 13:14:18;;;;;;;4.93;4.43;;;30.30;54.50;;;;;;5013874;28;20446;-60
2022/08/25 13:16:56;;;;;;;4.03;3.73;;;30.40;54.40;;;;;;5013716;28;20425;-63
2022/08/25 13:19:24;;;;;;;5.07;4.67;;;30.70;54.40;;;;;;5000542;28;20465;-64